Time;durP1;ratioP1;P1;durP2;ratioP2;P2;SDS_P1;SDS_P2;PMS_P1;PMS_P2;Temp;Humidity;BMP_temperature;BMP_pressure;BME280_temperature;BME280_humidity;BME280_pressure;Samples;Min_cycle;Max_cycle;Signal;HPM_P1;HPM_P2
2022/01/04 00:00:20;;;;;;;1.30;1.30;;;;;;;7.70;69.03;99829.41;687463;28;46259;-70
2022/01/04 00:00:41;;;;;;;1.35;1.35;;;;;;;7.69;69.03;99823.16;688530;28;22432;-69
2022/01/04 00:01:04;;;;;;;1.30;1.30;;;;;;;7.68;69.13;99820.66;687067;28;22486;-69
2022/01/04 00:01:25;;;;;;;1.30;1.30;;;;;;;7.69;68.99;99822.34;684921;28;45414;-70
2022/01/04 00:01:46;;;;;;;1.42;1.42;;;;;;;7.68;69.29;99817.97;686136;28;22480;-69
2022/01/04 00:02:07;;;;;;;1.30;1.30;;;;;;;7.64;69.09;99824.75;686052;28;23422;-74
2022/01/04 00:02:29;;;;;;;1.40;1.40;;;;;;;7.67;69.11;99821.69;685474;28;40554;-68
2022/01/04 00:02:50;;;;;;;1.00;1.00;;;;;;;7.65;69.25;99818.34;685189;28;22410;-71
2022/01/04 00:03:11;;;;;;;1.42;1.35;;;;;;;7.67;69.12;99814.47;683419;28;22430;-72
2022/01/04 00:03:32;;;;;;;1.33;1.33;;;;;;;7.66;69.29;99814.63;682660;28;44411;-70
2022/01/04 00:03:54;;;;;;;1.42;1.42;;;;;;;7.66;69.09;99817.31;682655;28;22441;-72
2022/01/04 00:04:15;;;;;;;1.60;1.55;;;;;;;7.65;69.29;99818.34;682545;28;44401;-71
2022/01/04 00:04:36;;;;;;;1.33;1.33;;;;;;;7.63;69.49;99813.13;683745;28;22393;-69
2022/01/04 00:04:57;;;;;;;1.30;1.30;;;;;;;7.62;69.34;99814.16;683337;28;22424;-70
2022/01/04 00:05:19;;;;;;;1.40;1.40;;;;;;;7.64;69.23;99819.38;682976;28;23232;-72
2022/01/04 00:05:40;;;;;;;1.50;1.50;;;;;;;7.62;69.32;99814.16;682738;28;46293;-69
2022/01/04 00:06:02;;;;;;;1.40;1.40;;;;;;;7.62;69.54;99810.63;683649;28;22434;-70
2022/01/04 00:06:23;;;;;;;1.10;1.10;;;;;;;7.62;69.24;99816.00;683098;28;22404;-69
2022/01/04 00:06:46;;;;;;;1.15;1.15;;;;;;;7.62;69.35;99822.22;683402;28;22409;-71
2022/01/04 00:07:07;;;;;;;1.20;1.20;;;;;;;7.60;69.32;99812.66;681814;28;67652;-70
2022/01/04 00:07:36;;;;;;;1.40;1.40;;;;;;;7.63;69.35;99817.69;682875;28;21127;-72
2022/01/04 00:07:57;;;;;;;2.10;2.00;;;;;;;7.64;69.46;99820.19;679177;28;137859;-69
2022/01/04 00:08:20;;;;;;;1.65;1.65;;;;;;;7.65;69.54;99812.97;685009;28;47983;-69
2022/01/04 00:08:42;;;;;;;1.30;1.30;;;;;;;7.65;69.25;99812.97;686030;28;23774;-70
2022/01/04 00:09:04;;;;;;;2.17;2.08;;;;;;;7.65;69.42;99813.81;685399;28;4133;-70
2022/01/04 00:09:35;;;;;;;1.60;1.60;;;;;;;7.64;69.46;99809.44;684150;28;67536;-70
2022/01/04 00:09:56;;;;;;;1.75;1.65;;;;;;;7.64;69.36;99811.31;684952;28;56069;-70
2022/01/04 00:10:21;;;;;;;1.58;1.58;;;;;;;7.65;69.60;99811.13;684931;28;22059;-72
2022/01/04 00:10:43;;;;;;;1.70;1.60;;;;;;;7.65;69.62;99815.66;680468;28;136537;-69
2022/01/04 00:11:14;;;;;;;1.67;1.58;;;;;;;7.65;69.56;99813.81;685056;28;1516;-71
2022/01/04 00:11:46;;;;;;;1.60;1.50;;;;;;;7.67;69.69;99814.47;677296;29;137638;-69
2022/01/04 00:13:29;;;;;;;0.90;0.90;;;;;;;7.71;69.42;99804.16;679474;28;160376;-70
2022/01/04 00:13:50;;;;;;;1.20;1.20;;;;;;;7.71;69.47;99806.84;684276;28;69434;-69
2022/01/04 00:14:12;;;;;;;1.20;1.20;;;;;;;7.71;69.43;99802.34;683640;28;67425;-72
2022/01/04 00:14:38;;;;;;;1.10;1.10;;;;;;;7.70;69.31;99803.34;685211;28;46470;-70
2022/01/04 00:15:06;;;;;;;1.77;1.67;;;;;;;7.70;69.24;99800.66;684933;28;59342;-71
2022/01/04 00:15:27;;;;;;;1.45;1.45;;;;;;;7.70;69.18;99797.16;681687;28;80373;-73
2022/01/04 00:15:48;;;;;;;1.35;1.35;;;;;;;7.69;69.26;99796.28;683635;28;7374;-69
2022/01/04 00:16:11;;;;;;;1.30;1.30;;;;;;;7.69;69.16;99800.84;682976;28;22340;-70
2022/01/04 00:16:32;;;;;;;1.50;1.50;;;;;;;7.69;69.41;99800.84;683639;28;11092;-70
2022/01/04 00:17:04;;;;;;;1.20;1.20;;;;;;;7.66;69.51;99785.91;684041;28;1193;-71
2022/01/04 00:17:32;;;;;;;1.42;1.42;;;;;;;7.70;69.28;99791.78;681877;28;59894;-69
2022/01/04 00:17:54;;;;;;;1.85;1.75;;;;;;;7.70;69.20;99789.09;684163;28;1496;-70
2022/01/04 00:18:16;;;;;;;1.42;1.42;;;;;;;7.70;69.52;99789.91;682449;28;45389;-70
2022/01/04 00:18:38;;;;;;;1.30;1.30;;;;;;;7.70;69.19;99781.03;683947;28;1374;-70
2022/01/04 00:18:59;;;;;;;1.65;1.55;;;;;;;7.68;69.31;99783.03;681395;28;45251;-70
2022/01/04 00:19:21;;;;;;;1.58;1.58;;;;;;;7.67;69.54;99778.69;682907;28;22397;-70
2022/01/04 00:19:42;;;;;;;1.58;1.55;;;;;;;7.69;69.47;99779.34;682463;28;46253;-70
2022/01/04 00:20:04;;;;;;;1.30;1.30;;;;;;;7.68;69.33;99772.28;683405;28;20303;-71
2022/01/04 00:20:26;;;;;;;1.40;1.40;;;;;;;7.66;69.22;99779.69;680182;28;45336;-70
2022/01/04 00:20:49;;;;;;;0.98;0.98;;;;;;;7.65;69.51;99780.72;682611;28;46428;-72
2022/01/04 00:21:10;;;;;;;0.93;0.93;;;;;;;7.64;69.37;99776.38;682205;28;69516;-70
2022/01/04 00:21:31;;;;;;;1.20;1.20;;;;;;;7.64;69.49;99776.38;683561;28;22518;-71
2022/01/04 00:21:54;;;;;;;1.50;1.50;;;;;;;7.62;69.62;99773.88;681623;29;20353;-70
2022/01/04 00:22:15;;;;;;;1.92;1.83;;;;;;;7.62;69.70;99779.25;680016;28;67498;-70
2022/01/04 00:22:42;;;;;;;1.35;1.35;;;;;;;7.63;69.69;99777.38;683452;28;23356;-70
2022/01/04 00:23:04;;;;;;;1.70;1.60;;;;;;;7.61;69.48;99777.56;683446;28;112054;-70
2022/01/04 00:23:26;;;;;;;1.80;1.70;;;;;;;7.62;69.80;99778.38;685889;28;22278;-71
2022/01/04 00:23:47;;;;;;;1.65;1.60;;;;;;;7.61;69.47;99774.03;685776;28;67052;-74
2022/01/04 00:24:08;;;;;;;1.58;1.48;;;;;;;7.59;69.79;99784.97;687893;28;22251;-71
2022/01/04 00:24:30;;;;;;;1.60;1.60;;;;;;;7.58;69.91;99770.69;688779;28;22416;-72
2022/01/04 00:24:54;;;;;;;1.40;1.40;;;;;;;7.61;69.73;99785.63;688235;28;1589;-70
2022/01/04 00:25:16;;;;;;;1.17;1.17;;;;;;;7.61;69.70;99774.03;683517;28;91384;-71
2022/01/04 00:25:37;;;;;;;1.20;1.20;;;;;;;7.60;69.79;99775.06;682572;28;44434;-71
2022/01/04 00:25:59;;;;;;;1.25;1.25;;;;;;;7.62;69.97;99773.00;683369;28;21550;-71
2022/01/04 00:26:20;;;;;;;1.30;1.30;;;;;;;7.62;69.72;99770.31;682583;28;46396;-72
2022/01/04 00:26:41;;;;;;;1.25;1.25;;;;;;;7.63;69.80;99780.88;683306;28;22411;-72
2022/01/04 00:27:03;;;;;;;1.20;1.20;;;;;;;7.62;69.64;99781.94;680548;29;22395;-71
2022/01/04 00:27:26;;;;;;;1.08;1.08;;;;;;;7.62;69.81;99768.50;679743;29;46337;-71
2022/01/04 00:27:47;;;;;;;1.70;1.60;;;;;;;7.62;69.79;99771.19;681196;28;69409;-71
2022/01/04 00:28:09;;;;;;;1.20;1.20;;;;;;;7.62;69.87;99773.88;683351;28;19916;-72
2022/01/04 00:28:30;;;;;;;1.30;1.30;;;;;;;7.61;69.82;99774.88;682785;28;45244;-71
2022/01/04 00:28:52;;;;;;;1.25;1.25;;;;;;;7.60;69.71;99773.19;683268;28;22250;-70
2022/01/04 00:29:15;;;;;;;2.25;2.15;;;;;;;7.62;69.79;99778.38;684227;28;23551;-71
2022/01/04 00:29:36;;;;;;;2.15;2.05;;;;;;;7.62;69.80;99773.00;681919;28;69733;-72
2022/01/04 00:29:58;;;;;;;1.63;1.60;;;;;;;7.57;69.82;99771.72;682052;28;67590;-71
2022/01/04 00:30:19;;;;;;;1.50;1.48;;;;;;;7.57;69.85;99774.41;687720;28;42695;-71
2022/01/04 00:30:42;;;;;;;1.63;1.60;;;;;;;7.58;69.73;99773.38;689025;28;22393;-71
2022/01/04 00:31:04;;;;;;;1.85;1.77;;;;;;;7.57;69.61;99769.03;687681;28;45271;-71
2022/01/04 00:31:27;;;;;;;1.45;1.45;;;;;;;7.57;69.98;99771.72;687585;28;45238;-71
2022/01/04 00:31:52;;;;;;;1.77;1.67;;;;;;;7.58;69.75;99775.22;686129;28;90619;-71
2022/01/04 00:32:13;;;;;;;1.85;1.75;;;;;;;7.60;70.02;99775.06;680757;28;115091;-70
2022/01/04 00:32:34;;;;;;;2.20;2.10;;;;;;;7.61;70.03;99774.88;683331;28;21342;-73
2022/01/04 00:32:55;;;;;;;2.55;2.45;;;;;;;7.62;69.88;99779.25;682339;28;44351;-72
2022/01/04 00:33:19;;;;;;;2.15;2.05;;;;;;;7.62;69.81;99770.31;685948;28;5202;-70
2022/01/04 00:33:43;;;;;;;4.03;3.83;;;;;;;7.62;70.00;99773.00;684040;28;92222;-71
2022/01/04 00:34:08;;;;;;;8.15;7.68;;;;;;;7.61;69.79;99764.13;682480;28;137928;-72
2022/01/04 00:34:37;;;;;;;20.77;19.58;;;;;;;7.62;69.94;99768.50;686914;28;62348;-71
2022/01/04 00:34:59;;;;;;;25.80;24.70;;;;;;;7.60;69.72;99764.31;688488;28;22393;-71
2022/01/04 00:35:20;;;;;;;41.45;39.55;;;;;;;7.62;70.09;99775.69;679555;28;46215;-71
2022/01/04 00:35:41;;;;;;;39.70;37.88;;;;;;;7.63;70.05;99777.38;681208;29;6367;-70
2022/01/04 00:36:03;;;;;;;28.33;27.10;;;;;;;7.62;70.01;99773.00;680492;29;22165;-72
2022/01/04 00:36:25;;;;;;;28.63;27.42;;;;;;;7.65;69.80;99768.13;678765;29;29718;-72
2022/01/04 00:36:46;;;;;;;38.15;36.50;;;;;;;7.65;69.77;99773.50;680503;29;22468;-71
2022/01/04 00:37:07;;;;;;;46.85;44.75;;;;;;;7.64;69.99;99773.69;681621;28;22520;-73
2022/01/04 00:37:29;;;;;;;38.95;37.25;;;;;;;7.66;69.90;99771.63;688021;28;42563;-72
2022/01/04 00:37:52;;;;;;;27.75;26.55;;;;;;;7.65;69.92;99767.28;687416;28;44186;-73
2022/01/04 00:38:13;;;;;;;27.17;25.95;;;;;;;7.65;70.06;99773.50;687529;28;43283;-71
2022/01/04 00:38:34;;;;;;;23.27;22.15;;;;;;;7.68;69.72;99772.28;687396;28;45076;-71
2022/01/04 00:38:56;;;;;;;38.85;37.10;;;;;;;7.69;69.74;99772.09;687800;28;22481;-70
2022/01/04 00:39:18;;;;;;;52.97;50.50;;;;;;;7.69;69.83;99772.09;685976;28;44433;-71
2022/01/04 00:39:39;;;;;;;54.88;52.38;;;;;;;7.68;69.77;99774.97;683712;28;1704;-72
2022/01/04 00:40:01;;;;;;;52.63;50.20;;;;;;;7.71;69.67;99771.91;682621;28;46372;-72
2022/01/04 00:40:23;;;;;;;81.32;77.70;;;;;;;7.71;69.91;99774.59;683679;28;967;-70
2022/01/04 00:40:44;;;;;;;138.77;131.52;;;;;;;7.74;69.81;99768.88;682155;28;45332;-70
2022/01/04 00:41:05;;;;;;;315.00;285.00;;;;;;;7.73;69.80;99767.22;682643;28;46413;-71
2022/01/04 00:41:28;;;;;;;286.02;258.17;;;;;;;7.68;69.60;99759.69;684038;28;1515;-71
2022/01/04 00:41:49;;;;;;;34.38;30.95;;;;;;;7.72;69.71;99770.91;682411;28;45338;-72
2022/01/04 00:42:11;;;;;;;3.95;3.85;;;;;;;7.76;69.74;99769.53;683007;28;45250;-71
2022/01/04 00:42:32;;;;;;;11.55;11.05;;;;;;;7.78;69.85;99772.03;683801;28;14759;-70
2022/01/04 00:42:57;;;;;;;40.95;39.03;;;;;;;7.74;69.57;99768.88;683703;28;22397;-70
2022/01/04 00:43:19;;;;;;;54.22;51.65;;;;;;;7.76;69.36;99765.00;679268;28;138159;-70
2022/01/04 00:43:40;;;;;;;47.92;45.78;;;;;;;7.71;69.74;99756.66;683531;28;17093;-70
2022/01/04 00:44:01;;;;;;;14.35;13.75;;;;;;;7.74;69.66;99772.41;682707;28;23297;-71
2022/01/04 00:44:23;;;;;;;26.33;25.17;;;;;;;7.75;69.35;99767.88;683939;28;959;-70
2022/01/04 00:44:44;;;;;;;55.75;53.28;;;;;;;7.74;69.47;99769.72;682690;28;45325;-70
2022/01/04 00:45:06;;;;;;;59.60;56.97;;;;;;;7.74;69.73;99771.56;683454;28;22220;-70
2022/01/04 00:45:31;;;;;;;91.95;87.70;;;;;;;7.73;69.53;99762.66;681656;28;44384;-72
2022/01/04 00:45:53;;;;;;;149.00;142.00;;;;;;;7.73;69.57;99762.66;680175;28;113617;-69
2022/01/04 00:46:21;;;;;;;207.57;196.77;;;;;;;7.73;69.71;99764.53;679662;29;58876;-72
2022/01/04 00:46:42;;;;;;;179.27;170.50;;;;;;;7.72;69.55;99766.38;680499;28;22280;-70
2022/01/04 00:47:04;;;;;;;153.57;146.38;;;;;;;7.72;69.57;99763.66;680793;29;22374;-70
2022/01/04 00:47:38;;;;;;;200.63;190.18;;;;;;;7.70;69.53;99759.53;682009;28;46424;-71
2022/01/04 00:49:23;;;;;;;68.63;65.53;;;;;;;7.69;70.00;99766.72;677699;28;158351;-70
2022/01/04 00:49:44;;;;;;;64.40;61.58;;;;;;;7.71;69.90;99761.16;682537;28;44349;-69
2022/01/04 00:50:06;;;;;;;62.55;59.83;;;;;;;7.68;69.93;99757.00;683741;28;22382;-70
2022/01/04 00:50:28;;;;;;;71.45;68.32;;;;;;;7.68;69.80;99762.38;682627;28;46390;-74
2022/01/04 00:50:49;;;;;;;38.50;36.85;;;;;;;7.69;69.67;99755.16;682273;28;45230;-70
2022/01/04 00:51:11;;;;;;;20.88;19.98;;;;;;;7.68;69.90;99756.16;683368;28;22415;-70
2022/01/04 00:51:33;;;;;;;23.70;22.67;;;;;;;7.68;69.71;99751.63;683510;28;22412;-70
2022/01/04 00:51:54;;;;;;;9.02;8.70;;;;;;;7.68;69.85;99754.31;683115;28;42429;-69
2022/01/04 00:52:17;;;;;;;17.67;16.95;;;;;;;7.70;69.90;99749.59;682648;28;46288;-70
2022/01/04 00:52:39;;;;;;;20.23;19.38;;;;;;;7.70;69.71;99748.78;682130;28;67582;-70
2022/01/04 00:53:03;;;;;;;23.83;22.83;;;;;;;7.68;69.85;99745.41;682484;28;46400;-69
2022/01/04 00:53:24;;;;;;;26.75;25.55;;;;;;;7.68;69.94;99751.63;680891;28;85364;-70
2022/01/04 00:53:45;;;;;;;44.15;42.20;;;;;;;7.67;69.74;99754.50;682371;28;24013;-72
2022/01/04 00:54:07;;;;;;;86.90;82.97;;;;;;;7.67;69.98;99747.28;679942;28;21515;-69
2022/01/04 00:54:28;;;;;;;212.52;199.32;;;;;;;7.65;70.09;99743.09;679818;28;46218;-69
2022/01/04 00:54:49;;;;;;;257.45;241.30;;;;;;;7.65;70.06;99743.94;679576;29;44324;-73
2022/01/04 00:55:10;;;;;;;282.50;262.77;;;;;;;7.66;69.80;99753.66;679282;29;23473;-70
2022/01/04 00:55:33;;;;;;;310.65;287.27;;;;;;;7.67;70.03;99751.81;681721;28;22372;-70
2022/01/04 00:55:54;;;;;;;343.02;310.75;;;;;;;7.66;69.81;99744.75;680320;28;68979;-70
2022/01/04 00:56:15;;;;;;;340.05;307.48;;;;;;;7.65;69.98;99748.47;682845;28;22469;-72
2022/01/04 00:56:36;;;;;;;255.48;237.07;;;;;;;7.66;70.11;99747.44;682765;28;22329;-71
2022/01/04 00:56:58;;;;;;;212.98;201.80;;;;;;;7.66;69.90;99750.13;686983;28;11158;-72
2022/01/04 00:57:19;;;;;;;235.70;222.90;;;;;;;7.63;70.08;99743.25;688376;28;37938;-70
2022/01/04 00:57:41;;;;;;;216.35;204.88;;;;;;;7.66;70.28;99745.59;686174;28;23478;-73
2022/01/04 00:58:02;;;;;;;199.48;189.10;;;;;;;7.67;69.98;99749.13;686022;28;22555;-69
2022/01/04 00:58:24;;;;;;;120.22;114.88;;;;;;;7.67;70.22;99741.06;684679;28;45178;-70
2022/01/04 00:58:46;;;;;;;111.40;106.50;;;;;;;7.68;70.09;99751.63;685235;28;21344;-70
2022/01/04 00:59:07;;;;;;;93.13;89.05;;;;;;;7.67;70.05;99741.91;681413;28;44110;-70
2022/01/04 00:59:28;;;;;;;68.40;65.32;;;;;;;7.68;70.02;99740.03;682993;28;21548;-70
2022/01/04 00:59:50;;;;;;;60.13;57.42;;;;;;;7.65;70.22;99737.72;685623;28;20014;-73
2022/01/04 01:00:13;;;;;;;65.82;62.88;;;;;;;7.67;69.90;99736.53;685223;28;42864;-71
2022/01/04 01:00:35;;;;;;;64.10;61.17;;;;;;;7.68;70.17;99742.72;684533;28;57835;-69
2022/01/04 01:00:56;;;;;;;98.55;94.30;;;;;;;7.67;70.09;99739.22;686433;28;22376;-75
2022/01/04 01:01:18;;;;;;;96.68;92.38;;;;;;;7.67;70.14;99736.53;685999;28;1007;-69
2022/01/04 01:01:39;;;;;;;80.50;76.93;;;;;;;7.69;70.22;99739.03;681354;28;46169;-69
2022/01/04 01:02:00;;;;;;;74.38;71.07;;;;;;;7.68;69.87;99734.66;680577;29;22404;-69
2022/01/04 01:02:21;;;;;;;95.43;91.30;;;;;;;7.69;69.99;99739.03;680170;29;21642;-70
2022/01/04 01:02:44;;;;;;;102.57;98.07;;;;;;;7.67;69.88;99741.91;680780;29;23444;-70
2022/01/04 01:03:06;;;;;;;102.28;97.85;;;;;;;7.69;70.07;99747.09;679748;28;70083;-71
2022/01/04 01:03:27;;;;;;;105.93;101.32;;;;;;;7.68;70.02;99735.50;682054;28;46375;-73
2022/01/04 01:03:48;;;;;;;98.65;94.35;;;;;;;7.69;70.13;99739.84;683092;28;23487;-70
2022/01/04 01:04:11;;;;;;;113.15;108.05;;;;;;;7.69;69.99;99733.66;681804;28;44352;-71
2022/01/04 01:04:32;;;;;;;86.45;82.55;;;;;;;7.67;69.94;99736.53;682433;28;46280;-70
2022/01/04 01:04:53;;;;;;;63.67;60.78;;;;;;;7.69;69.88;99730.97;682916;28;22404;-70
2022/01/04 01:05:15;;;;;;;69.78;66.68;;;;;;;7.71;69.87;99736.97;682662;28;21536;-70
2022/01/04 01:05:37;;;;;;;78.85;75.25;;;;;;;7.70;70.12;99728.09;682145;28;46137;-70
2022/01/04 01:05:58;;;;;;;79.85;76.28;;;;;;;7.71;69.89;99731.59;682610;28;31991;-72
2022/01/04 01:06:20;;;;;;;88.40;84.50;;;;;;;7.71;69.89;99728.91;682117;28;45906;-70
2022/01/04 01:06:42;;;;;;;175.43;166.65;;;;;;;7.70;69.79;99720.03;683918;28;879;-70
2022/01/04 01:07:04;;;;;;;256.10;237.80;;;;;;;7.68;70.08;99719.38;682075;28;46727;-69
2022/01/04 01:07:25;;;;;;;333.75;304.95;;;;;;;7.70;70.04;99725.41;685857;28;1716;-70
2022/01/04 01:07:46;;;;;;;333.20;306.67;;;;;;;7.68;69.89;99718.53;682963;28;23360;-70
2022/01/04 01:08:10;;;;;;;281.98;261.58;;;;;;;7.68;69.84;99723.91;684798;28;46451;-71
2022/01/04 01:08:31;;;;;;;282.50;261.90;;;;;;;7.66;69.86;99726.78;680789;28;68124;-69
2022/01/04 01:08:53;;;;;;;276.52;257.25;;;;;;;7.72;69.86;99725.22;681973;28;25561;-69
2022/01/04 01:09:14;;;;;;;344.15;313.23;;;;;;;7.72;69.77;99720.66;681752;28;26267;-69
2022/01/04 01:09:45;;;;;;;331.77;303.73;;;;;;;7.70;70.04;99717.34;683750;28;21975;-69
2022/01/04 01:10:24;;;;;;;303.58;279.50;;;;;;;7.73;69.92;99724.22;681905;28;136087;-70
2022/01/04 01:10:47;;;;;;;268.00;251.57;;;;;;;7.73;70.09;99724.22;681927;28;137624;-69
2022/01/04 01:11:10;;;;;;;95.32;90.47;;;;;;;7.72;69.95;99734.09;685847;28;67310;-71
2022/01/04 01:11:32;;;;;;;5.72;5.53;;;;;;;7.71;69.99;99732.47;681895;28;69196;-70
2022/01/04 01:11:53;;;;;;;4.55;4.38;;;;;;;7.71;69.78;99729.78;682175;28;46426;-69
2022/01/04 01:12:14;;;;;;;5.97;5.78;;;;;;;7.72;69.82;99734.09;682672;28;23382;-70
2022/01/04 01:12:36;;;;;;;2.92;2.83;;;;;;;7.69;69.83;99729.09;679901;28;19929;-69
2022/01/04 01:12:57;;;;;;;1.35;1.35;;;;;;;7.68;69.92;99726.59;679455;29;46307;-69
2022/01/04 01:13:18;;;;;;;1.00;1.00;;;;;;;7.69;69.80;99728.28;680637;29;22435;-69
2022/01/04 01:13:40;;;;;;;0.93;0.93;;;;;;;7.69;70.08;99720.22;683076;28;21568;-69
2022/01/04 01:14:01;;;;;;;1.00;1.00;;;;;;;7.71;69.95;99727.09;681609;28;46358;-69
2022/01/04 01:14:22;;;;;;;1.10;1.10;;;;;;;7.69;69.93;99714.84;683022;28;22407;-69
2022/01/04 01:14:43;;;;;;;0.93;0.93;;;;;;;7.69;70.03;99721.03;683204;28;21549;-72
2022/01/04 01:15:08;;;;;;;0.85;0.85;;;;;;;7.68;70.05;99718.53;683322;28;22397;-69
2022/01/04 01:15:29;;;;;;;0.70;0.70;;;;;;;7.67;70.20;99716.88;680154;28;115166;-69
2022/01/04 01:15:50;;;;;;;0.90;0.90;;;;;;;7.69;69.92;99720.22;683109;28;21530;-70
2022/01/04 01:16:11;;;;;;;0.90;0.90;;;;;;;7.69;70.13;99717.53;683098;28;21544;-70
2022/01/04 01:16:33;;;;;;;0.80;0.80;;;;;;;7.68;70.08;99722.06;683586;28;22405;-69
2022/01/04 01:16:54;;;;;;;0.70;0.70;;;;;;;7.71;69.89;99726.22;682674;28;46300;-70
2022/01/04 01:17:16;;;;;;;0.60;0.60;;;;;;;7.70;70.15;99725.41;681087;29;22423;-69
2022/01/04 01:17:37;;;;;;;0.70;0.70;;;;;;;7.71;69.96;99729.78;680529;29;45061;-71
2022/01/04 01:18:00;;;;;;;0.80;0.80;;;;;;;7.68;70.15;99722.06;680787;28;45274;-70
2022/01/04 01:18:22;;;;;;;0.70;0.70;;;;;;;7.69;69.79;99728.28;681505;28;45263;-69
2022/01/04 01:18:43;;;;;;;0.70;0.70;;;;;;;7.69;69.91;99718.34;682756;28;44369;-70
2022/01/04 01:19:04;;;;;;;0.55;0.55;;;;;;;7.69;70.03;99726.41;682238;28;45256;-71
2022/01/04 01:19:25;;;;;;;0.50;0.50;;;;;;;7.69;70.16;99720.22;682375;28;22402;-69
2022/01/04 01:19:47;;;;;;;0.68;0.68;;;;;;;7.70;70.14;99713.81;683193;28;21529;-70
2022/01/04 01:20:09;;;;;;;0.80;0.80;;;;;;;7.70;70.12;99716.50;682306;28;45336;-70
2022/01/04 01:20:31;;;;;;;0.60;0.60;;;;;;;7.70;69.84;99709.28;685320;28;46799;-69
2022/01/04 01:20:52;;;;;;;0.60;0.60;;;;;;;7.70;69.93;99716.50;685849;28;22275;-73
2022/01/04 01:21:14;;;;;;;1.15;1.15;;;;;;;7.67;69.85;99711.50;682420;28;45092;-69
2022/01/04 01:21:35;;;;;;;2.05;1.95;;;;;;;7.68;69.84;99716.69;684770;28;46419;-69
2022/01/04 01:21:56;;;;;;;1.50;1.50;;;;;;;7.68;70.12;99708.63;685983;28;22341;-69
2022/01/04 01:22:17;;;;;;;1.20;1.20;;;;;;;7.65;70.08;99709.00;684949;28;23479;-69
2022/01/04 01:22:38;;;;;;;1.48;1.48;;;;;;;7.69;70.06;99709.47;683642;28;7817;-69
2022/01/04 01:23:01;;;;;;;1.80;1.70;;;;;;;7.69;70.15;99702.22;685949;28;23453;-69
2022/01/04 01:23:23;;;;;;;2.13;2.03;;;;;;;7.70;70.12;99713.81;687209;28;45435;-72
2022/01/04 01:23:44;;;;;;;1.88;1.77;;;;;;;7.69;69.91;99709.47;686475;28;69416;-70
2022/01/04 01:24:07;;;;;;;1.73;1.63;;;;;;;7.70;70.09;99703.06;687066;28;21050;-69
2022/01/04 01:24:28;;;;;;;1.58;1.58;;;;;;;7.70;69.89;99709.28;686989;28;69783;-71
2022/01/04 01:24:49;;;;;;;1.90;1.80;;;;;;;7.71;69.84;99710.09;687576;28;21545;-70
2022/01/04 01:25:12;;;;;;;1.75;1.70;;;;;;;7.70;69.76;99714.66;685593;28;22377;-71
2022/01/04 01:25:33;;;;;;;1.63;1.60;;;;;;;7.70;69.74;99711.13;681377;28;70043;-70
2022/01/04 01:25:56;;;;;;;1.50;1.50;;;;;;;7.68;70.02;99708.63;681746;28;45278;-70
2022/01/04 01:26:17;;;;;;;1.95;1.85;;;;;;;7.71;69.89;99710.97;681919;28;44305;-70
2022/01/04 01:26:38;;;;;;;1.90;1.80;;;;;;;7.72;69.81;99707.22;685627;28;22538;-71
2022/01/04 01:26:59;;;;;;;1.40;1.40;;;;;;;7.74;70.06;99713.28;684558;28;44391;-69
2022/01/04 01:27:21;;;;;;;1.52;1.52;;;;;;;7.74;69.99;99707.91;685976;28;23489;-70
2022/01/04 01:27:42;;;;;;;2.30;2.20;;;;;;;7.74;69.77;99710.59;684700;28;48499;-71
2022/01/04 01:28:04;;;;;;;1.98;1.88;;;;;;;7.75;69.95;99701.50;686175;28;1768;-72
2022/01/04 01:28:26;;;;;;;2.60;2.50;;;;;;;7.77;69.90;99701.31;684381;28;45249;-70
2022/01/04 01:28:47;;;;;;;4.47;4.28;;;;;;;7.79;69.84;99703.81;681281;28;69452;-70
2022/01/04 01:29:09;;;;;;;3.65;3.45;;;;;;;7.78;69.57;99710.22;681647;28;24912;-70
2022/01/04 01:29:31;;;;;;;3.20;3.00;;;;;;;7.76;69.90;99705.84;685424;28;24507;-70
2022/01/04 01:29:52;;;;;;;2.95;2.78;;;;;;;7.75;69.57;99703.34;687714;28;46436;-69
2022/01/04 01:30:14;;;;;;;3.22;3.13;;;;;;;7.74;69.72;99701.66;686046;28;1390;-71
2022/01/04 01:30:39;;;;;;;4.57;4.38;;;;;;;7.72;69.55;99696.47;684162;28;69409;-70
2022/01/04 01:31:00;;;;;;;4.45;4.25;;;;;;;7.69;69.51;99696.84;683537;28;92527;-72
2022/01/04 01:31:23;;;;;;;4.93;4.72;;;;;;;7.69;69.64;99701.41;685352;28;1414;-70
2022/01/04 01:31:44;;;;;;;6.03;5.82;;;;;;;7.73;69.92;99700.03;682222;28;44448;-71
2022/01/04 01:32:06;;;;;;;5.68;5.47;;;;;;;7.72;69.62;99696.47;684043;28;22393;-70
2022/01/04 01:32:27;;;;;;;5.93;5.72;;;;;;;7.71;69.63;99696.66;684860;28;44405;-71
2022/01/04 01:32:50;;;;;;;6.80;6.60;;;;;;;7.72;69.64;99690.28;685332;28;22405;-73
2022/01/04 01:33:12;;;;;;;4.28;4.18;;;;;;;7.72;69.67;99691.09;681413;28;69378;-70
2022/01/04 01:33:33;;;;;;;4.32;4.13;;;;;;;7.70;69.63;99692.31;682888;28;44343;-70
2022/01/04 01:33:54;;;;;;;6.28;6.07;;;;;;;7.70;69.65;99690.47;681791;28;44377;-71
2022/01/04 01:34:16;;;;;;;4.97;4.78;;;;;;;7.70;69.67;99681.56;683272;28;22408;-70
2022/01/04 01:34:38;;;;;;;4.55;4.35;;;;;;;7.68;69.83;99688.97;682086;28;44390;-70
2022/01/04 01:34:59;;;;;;;8.30;8.00;;;;;;;7.68;69.71;99692.50;683199;28;21515;-71
2022/01/04 01:35:20;;;;;;;11.80;11.30;;;;;;;7.69;69.73;99688.78;682864;28;23634;-70
2022/01/04 01:35:42;;;;;;;10.88;10.48;;;;;;;7.69;70.04;99687.97;683219;28;22411;-69
2022/01/04 01:36:05;;;;;;;8.73;8.43;;;;;;;7.69;69.98;99688.78;682207;28;67578;-70
2022/01/04 01:36:32;;;;;;;9.60;9.20;;;;;;;7.69;69.89;99694.16;688453;28;20556;-69
2022/01/04 01:36:53;;;;;;;8.80;8.30;;;;;;;7.65;69.94;99683.97;687546;28;59325;-70
2022/01/04 01:37:16;;;;;;;11.35;10.82;;;;;;;7.65;69.97;99686.66;688099;28;22250;-70
2022/01/04 01:37:37;;;;;;;12.77;12.07;;;;;;;7.67;69.85;99690.00;684078;28;69305;-71
2022/01/04 01:37:58;;;;;;;9.80;9.30;;;;;;;7.68;70.17;99689.81;685864;28;22417;-71
2022/01/04 01:38:19;;;;;;;12.75;12.20;;;;;;;7.66;70.12;99680.25;684273;28;21531;-71
2022/01/04 01:38:43;;;;;;;19.98;19.08;;;;;;;7.66;70.07;99691.00;682159;28;46315;-70
2022/01/04 01:39:04;;;;;;;12.10;11.48;;;;;;;7.69;69.87;99696.03;680204;28;55141;-69
2022/01/04 01:39:25;;;;;;;7.30;6.97;;;;;;;7.64;69.99;99683.13;681462;28;8762;-71
2022/01/04 01:39:47;;;;;;;4.70;4.50;;;;;;;7.68;70.11;99694.34;683269;28;23474;-71
2022/01/04 01:40:09;;;;;;;3.75;3.65;;;;;;;7.64;69.97;99683.13;682398;28;46179;-70
2022/01/04 01:40:32;;;;;;;5.88;5.60;;;;;;;7.68;70.36;99691.66;684852;28;46638;-70
2022/01/04 01:40:53;;;;;;;4.35;4.15;;;;;;;7.69;70.00;99691.47;684318;28;69431;-71
2022/01/04 01:41:15;;;;;;;2.85;2.75;;;;;;;7.68;70.15;99691.66;686284;28;19189;-72
2022/01/04 01:41:37;;;;;;;2.58;2.47;;;;;;;7.71;69.89;99691.28;687524;28;46341;-69
2022/01/04 01:41:58;;;;;;;8.20;6.72;;;;;;;7.69;69.77;99679.91;683014;28;44158;-71
2022/01/04 01:42:19;;;;;;;9.20;7.53;;;;;;;7.68;69.99;99683.59;686557;28;22401;-71
2022/01/04 01:42:41;;;;;;;2.20;2.10;;;;;;;7.70;70.08;99676.19;683317;28;22393;-72
2022/01/04 01:43:03;;;;;;;2.50;2.40;;;;;;;7.69;70.04;99677.22;682944;28;23500;-70
2022/01/04 01:43:28;;;;;;;2.00;1.90;;;;;;;7.69;70.06;99675.34;681434;28;69486;-72
2022/01/04 01:43:49;;;;;;;1.70;1.60;;;;;;;7.69;69.86;99675.34;679992;28;114855;-70
2022/01/04 01:44:12;;;;;;;1.58;1.58;;;;;;;7.69;69.82;99672.66;682324;28;22384;-72
2022/01/04 01:44:34;;;;;;;1.98;1.88;;;;;;;7.69;69.94;99669.16;681614;28;68338;-71
2022/01/04 01:44:56;;;;;;;1.80;1.70;;;;;;;7.68;69.66;99670.16;682286;28;45261;-72
2022/01/04 01:45:18;;;;;;;2.10;2.00;;;;;;;7.65;69.90;99662.47;684344;28;948;-70
2022/01/04 01:45:41;;;;;;;2.63;2.53;;;;;;;7.67;70.01;99668.50;683129;28;45341;-70
2022/01/04 01:46:02;;;;;;;2.58;2.47;;;;;;;7.66;69.90;99670.34;681656;28;69126;-70
2022/01/04 01:46:23;;;;;;;1.70;1.70;;;;;;;7.67;70.04;99665.81;681883;28;44824;-70
2022/01/04 01:46:44;;;;;;;2.00;1.90;;;;;;;7.68;70.12;99667.47;682930;28;24797;-70
2022/01/04 01:47:06;;;;;;;1.90;1.80;;;;;;;7.68;70.25;99675.53;682253;28;21518;-70
2022/01/04 01:47:27;;;;;;;1.73;1.67;;;;;;;7.68;70.02;99672.84;682380;28;45274;-70
2022/01/04 01:47:49;;;;;;;1.38;1.38;;;;;;;7.68;69.95;99668.31;683347;28;23747;-69
2022/01/04 01:48:12;;;;;;;3.40;3.30;;;;;;;7.66;70.04;99669.50;681894;28;46341;-69
2022/01/04 01:48:33;;;;;;;3.47;3.38;;;;;;;7.66;69.91;99667.66;682242;28;46344;-69